Time,TemperatureF,DewpointF,PressureIn,WindDirection,WindDirectionDegrees,WindSpeedMPH,WindSpeedGustMPH,Humidity,HourlyPrecipIn,Conditions,Clouds,dailyrainin,SolarRadiationWatts/m^2,SoftwareType,DateUTC
2013-10-08 00:01:00,58.3,48.0,29.90,West,277,0.0,-999.0,68,-99.99,,,0.00,0,weatherlink.com 1.10,2013-10-08 07:01:00,
2013-10-08 00:16:00,57.6,46.0,29.90,West,277,0.0,-999.0,65,-99.99,,,0.00,0,weatherlink.com 1.10,2013-10-08 07:16:00,
2013-10-08 00:31:00,58.1,47.0,29.89,West,277,0.0,-999.0,66,-99.99,,,0.00,0,weatherlink.com 1.10,2013-10-08 07:31:00,
2013-10-08 00:46:00,58.0,48.0,29.89,West,277,0.0,-999.0,69,-99.99,,,0.00,0,weatherlink.com 1.10,2013-10-08 07:46:00,
2013-10-08 01:01:00,57.4,47.0,29.90,West,277,0.0,-999.0,69,-99.99,,,0.00,0,weatherlink.com 1.10,2013-10-08 08:01:00,
2013-10-08 01:16:00,56.0,46.0,29.90,West,276,0.0,-999.0,69,-99.99,,,0.00,0,weatherlink.com 1.10,2013-10-08 08:16:00,
2013-10-08 01:31:00,56.2,47.0,29.90,West,277,0.0,-999.0,71,-99.99,,,0.00,0,weatherlink.com 1.10,2013-10-08 08:31:00,
2013-10-08 01:46:00,55.8,47.0,29.90,West,277,0.0,-999.0,72,-99.99,,,0.00,0,weatherlink.com 1.10,2013-10-08 08:46:00,
2013-10-08 02:01:00,56.1,48.0,29.90,West,277,0.0,-999.0,73,-99.99,,,0.00,0,weatherlink.com 1.10,2013-10-08 09:01:00,
2013-10-08 02:16:00,55.5,47.0,29.90,West,277,0.0,-999.0,73,-99.99,,,0.00,0,weatherlink.com 1.10,2013-10-08 09:16:00,
2013-10-08 02:31:00,55.1,47.0,29.89,West,276,0.0,-999.0,74,-99.99,,,0.00,0,weatherlink.com 1.10,2013-10-08 09:31:00,
2013-10-08 02:46:00,54.7,47.0,29.89,West,277,0.0,-999.0,75,-99.99,,,0.00,0,weatherlink.com 1.10,2013-10-08 09:46:00,
2013-10-08 03:01:00,54.9,48.0,29.89,West,277,0.0,-999.0,77,-99.99,,,0.00,0,weatherlink.com 1.10,2013-10-08 10:01:00,
2013-10-08 03:16:00,54.2,47.0,29.89,West,277,0.0,-999.0,76,-99.99,,,0.00,0,weatherlink.com 1.10,2013-10-08 10:16:00,
2013-10-08 03:31:00,53.2,46.0,29.88,West,277,0.0,-999.0,76,-99.99,,,0.00,0,weatherlink.com 1.10,2013-10-08 10:31:00,
2013-10-08 03:46:00,54.3,48.0,29.88,West,276,0.0,-999.0,79,-99.99,,,0.00,0,weatherlink.com 1.10,2013-10-08 10:46:00,
2013-10-08 04:01:00,52.5,46.0,29.87,West,277,0.0,-999.0,79,-99.99,,,0.00,0,weatherlink.com 1.10,2013-10-08 11:01:00,
2013-10-08 04:16:00,51.6,45.0,29.87,West,277,0.0,-999.0,78,-99.99,,,0.00,0,weatherlink.com 1.10,2013-10-08 11:16:00,
2013-10-08 04:31:00,52.0,45.0,29.87,West,277,0.0,-999.0,78,-99.99,,,0.00,0,weatherlink.com 1.10,2013-10-08 11:31:00,
2013-10-08 04:46:00,52.0,45.0,29.87,West,277,0.0,-999.0,77,-99.99,,,0.00,0,weatherlink.com 1.10,2013-10-08 11:46:00,
2013-10-08 05:01:00,52.0,45.0,29.86,West,276,0.0,-999.0,78,-99.99,,,0.00,0,weatherlink.com 1.10,2013-10-08 12:01:00,
2013-10-08 05:16:00,51.4,44.0,29.87,West,276,0.0,-999.0,77,-99.99,,,0.00,0,weatherlink.com 1.10,2013-10-08 12:16:00,
2013-10-08 05:31:00,52.6,46.0,29.87,West,277,0.0,-999.0,79,-99.99,,,0.00,0,weatherlink.com 1.10,2013-10-08 12:31:00,
2013-10-08 05:46:00,52.8,47.0,29.87,West,277,0.0,-999.0,81,-99.99,,,0.00,0,weatherlink.com 1.10,2013-10-08 12:46:00,
2013-10-08 06:01:00,52.9,48.0,29.87,West,277,0.0,-999.0,82,-99.99,,,0.00,0,weatherlink.com 1.10,2013-10-08 13:01:00,
2013-10-08 06:16:00,52.5,47.0,29.88,West,276,0.0,-999.0,82,-99.99,,,0.00,0,weatherlink.com 1.10,2013-10-08 13:16:00,
2013-10-08 06:31:00,51.5,46.0,29.87,West,276,0.0,-999.0,81,-99.99,,,0.00,0,weatherlink.com 1.10,2013-10-08 13:31:00,
2013-10-08 06:46:00,51.4,46.0,29.87,West,277,0.0,-999.0,81,-99.99,,,0.00,0,weatherlink.com 1.10,2013-10-08 13:46:00,
2013-10-08 07:01:00,51.5,46.0,29.88,West,277,0.0,-999.0,81,-99.99,,,0.00,7,weatherlink.com 1.10,2013-10-08 14:01:00,
2013-10-08 07:16:00,52.0,47.0,29.89,West,277,0.0,-999.0,82,-99.99,,,0.00,18,weatherlink.com 1.10,2013-10-08 14:16:00,
2013-10-08 07:31:00,52.5,47.0,29.89,West,277,0.0,-999.0,82,-99.99,,,0.00,32,weatherlink.com 1.10,2013-10-08 14:31:00,
2013-10-08 07:46:00,53.7,48.0,29.89,West,277,0.0,-999.0,82,-99.99,,,0.00,95,weatherlink.com 1.10,2013-10-08 14:46:00,
2013-10-08 08:01:00,54.7,48.0,29.89,West,277,0.0,-999.0,79,-99.99,,,0.00,185,weatherlink.com 1.10,2013-10-08 15:01:00,
2013-10-08 08:16:00,56.7,49.0,29.90,West,276,0.0,-999.0,75,-99.99,,,0.00,139,weatherlink.com 1.10,2013-10-08 15:16:00,
2013-10-08 08:30:00,59.9,53.0,29.90,West,276,0.0,-999.0,77,-99.99,,,0.00,264,weatherlink.com 1.10,2013-10-08 15:30:00,
2013-10-08 08:46:00,61.9,55.0,29.90,West,277,2.0,-999.0,77,-99.99,,,0.00,302,weatherlink.com 1.10,2013-10-08 15:46:00,
2013-10-08 09:01:00,63.1,55.0,29.90,WNW,298,2.0,-999.0,76,-99.99,,,0.00,346,weatherlink.com 1.10,2013-10-08 16:01:00,
2013-10-08 09:16:00,64.4,56.0,29.90,West,269,4.0,-999.0,74,-99.99,,,0.00,394,weatherlink.com 1.10,2013-10-08 16:16:00,
2013-10-08 09:31:00,64.8,55.0,29.90,SW,219,2.0,-999.0,71,-99.99,,,0.00,436,weatherlink.com 1.10,2013-10-08 16:31:00,
2013-10-08 09:46:00,65.7,55.0,29.90,WSW,243,5.0,-999.0,69,-99.99,,,0.00,480,weatherlink.com 1.10,2013-10-08 16:46:00,
2013-10-08 10:00:00,66.6,55.0,29.90,WNW,294,3.0,-999.0,67,-99.99,,,0.00,517,weatherlink.com 1.10,2013-10-08 17:00:00,
2013-10-08 10:15:00,67.4,55.0,29.89,WNW,289,0.0,-999.0,65,-99.99,,,0.00,548,weatherlink.com 1.10,2013-10-08 17:15:00,
2013-10-08 10:31:00,68.5,56.0,29.89,WNW,292,1.0,-999.0,64,-99.99,,,0.00,591,weatherlink.com 1.10,2013-10-08 17:31:00,
2013-10-08 10:45:00,69.5,56.0,29.89,WSW,248,0.0,-999.0,63,-99.99,,,0.00,615,weatherlink.com 1.10,2013-10-08 17:45:00,
2013-10-08 11:02:00,70.3,57.0,29.89,WNW,297,3.0,-999.0,62,-99.99,,,0.00,647,weatherlink.com 1.10,2013-10-08 18:02:00,
2013-10-08 11:15:00,70.5,56.0,29.89,West,274,3.0,-999.0,61,-99.99,,,0.00,663,weatherlink.com 1.10,2013-10-08 18:15:00,
2013-10-08 11:31:00,71.3,56.0,29.89,West,261,0.0,-999.0,59,-99.99,,,0.00,686,weatherlink.com 1.10,2013-10-08 18:31:00,
2013-10-08 11:46:00,72.1,56.0,29.88,SSW,213,0.0,-999.0,57,-99.99,,,0.00,698,weatherlink.com 1.10,2013-10-08 18:46:00,
2013-10-08 12:01:00,71.9,55.0,29.88,WSW,238,2.0,-999.0,56,-99.99,,,0.00,714,weatherlink.com 1.10,2013-10-08 19:01:00,
2013-10-08 12:15:00,72.9,56.0,29.87,SW,228,7.0,-999.0,56,-99.99,,,0.00,719,weatherlink.com 1.10,2013-10-08 19:15:00,
2013-10-08 12:30:00,73.3,56.0,29.86,WSW,240,7.0,-999.0,55,-99.99,,,0.00,726,weatherlink.com 1.10,2013-10-08 19:30:00,
2013-10-08 12:45:00,73.7,56.0,29.85,West,266,4.0,-999.0,54,-99.99,,,0.00,728,weatherlink.com 1.10,2013-10-08 19:45:00,
2013-10-08 13:00:00,73.5,56.0,29.85,SW,226,4.0,-999.0,55,-99.99,,,0.00,729,weatherlink.com 1.10,2013-10-08 20:00:00,
2013-10-08 13:15:00,73.7,56.0,29.84,WNW,286,1.0,-999.0,54,-99.99,,,0.00,717,weatherlink.com 1.10,2013-10-08 20:15:00,
2013-10-08 13:30:00,73.9,57.0,29.84,WSW,240,4.0,-999.0,56,-99.99,,,0.00,705,weatherlink.com 1.10,2013-10-08 20:30:00,
2013-10-08 13:45:00,73.9,57.0,29.83,WSW,242,4.0,-999.0,55,-99.99,,,0.00,693,weatherlink.com 1.10,2013-10-08 20:45:00,
2013-10-08 14:00:00,73.6,56.0,29.82,SW,220,6.0,-999.0,55,-99.99,,,0.00,671,weatherlink.com 1.10,2013-10-08 21:00:00,
2013-10-08 14:15:00,73.5,57.0,29.82,SSW,213,0.0,-999.0,56,-99.99,,,0.00,657,weatherlink.com 1.10,2013-10-08 21:15:00,
2013-10-08 14:30:00,72.8,57.0,29.82,SW,230,6.0,-999.0,58,-99.99,,,0.00,629,weatherlink.com 1.10,2013-10-08 21:30:00,
2013-10-08 14:45:00,72.8,57.0,29.82,SSW,206,0.0,-999.0,57,-99.99,,,0.00,598,weatherlink.com 1.10,2013-10-08 21:45:00,
2013-10-08 15:00:00,72.4,56.0,29.82,SW,223,6.0,-999.0,57,-99.99,,,0.00,564,weatherlink.com 1.10,2013-10-08 22:00:00,
2013-10-08 15:15:00,71.6,56.0,29.82,WSW,242,3.0,-999.0,59,-99.99,,,0.00,533,weatherlink.com 1.10,2013-10-08 22:15:00,
2013-10-08 15:30:00,71.9,56.0,29.81,SW,236,3.0,-999.0,58,-99.99,,,0.00,499,weatherlink.com 1.10,2013-10-08 22:30:00,
2013-10-08 15:45:00,70.7,56.0,29.81,WSW,245,4.0,-999.0,59,-99.99,,,0.00,448,weatherlink.com 1.10,2013-10-08 22:45:00,
2013-10-08 16:00:00,70.5,55.0,29.81,WSW,246,2.0,-999.0,59,-99.99,,,0.00,410,weatherlink.com 1.10,2013-10-08 23:00:00,
2013-10-08 16:15:00,69.6,55.0,29.81,WSW,246,7.0,-999.0,60,-99.99,,,0.00,383,weatherlink.com 1.10,2013-10-08 23:15:00,
2013-10-08 16:30:00,68.8,55.0,29.81,SW,220,7.0,-999.0,61,-99.99,,,0.00,341,weatherlink.com 1.10,2013-10-08 23:30:00,
2013-10-08 16:45:00,68.3,54.0,29.81,WSW,237,9.0,-999.0,61,-99.99,,,0.00,276,weatherlink.com 1.10,2013-10-08 23:45:00,
2013-10-08 17:00:00,67.6,54.0,29.80,SW,218,2.0,-999.0,62,-99.99,,,0.00,227,weatherlink.com 1.10,2013-10-09 00:00:00,
2013-10-08 17:15:00,66.8,54.0,29.80,West,271,5.0,-999.0,63,-99.99,,,0.00,163,weatherlink.com 1.10,2013-10-09 00:15:00,
2013-10-08 17:30:00,66.2,53.0,29.80,West,266,1.0,-999.0,63,-99.99,,,0.00,47,weatherlink.com 1.10,2013-10-09 00:30:00,
2013-10-08 17:45:00,65.6,53.0,29.80,SW,229,9.0,-999.0,65,-99.99,,,0.00,32,weatherlink.com 1.10,2013-10-09 00:45:00,
2013-10-08 18:00:00,64.9,53.0,29.80,SW,223,5.0,-999.0,66,-99.99,,,0.00,23,weatherlink.com 1.10,2013-10-09 01:00:00,
2013-10-08 18:15:00,64.3,53.0,29.80,SW,226,5.0,-999.0,67,-99.99,,,0.00,11,weatherlink.com 1.10,2013-10-09 01:15:00,
2013-10-08 18:30:00,63.7,53.0,29.79,SW,219,1.0,-999.0,69,-99.99,,,0.00,0,weatherlink.com 1.10,2013-10-09 01:30:00,
2013-10-08 18:45:00,63.3,53.0,29.80,WSW,256,4.0,-999.0,70,-99.99,,,0.00,0,weatherlink.com 1.10,2013-10-09 01:45:00,
2013-10-08 19:00:00,63.1,53.0,29.81,WSW,240,6.0,-999.0,70,-99.99,,,0.00,0,weatherlink.com 1.10,2013-10-09 02:00:00,
2013-10-08 19:15:00,63.1,53.0,29.81,SW,232,5.0,-999.0,70,-99.99,,,0.00,0,weatherlink.com 1.10,2013-10-09 02:15:00,
2013-10-08 19:31:00,62.9,53.0,29.81,SW,220,6.0,-999.0,70,-99.99,,,0.00,0,weatherlink.com 1.10,2013-10-09 02:31:00,
2013-10-08 19:46:00,62.7,53.0,29.82,SW,219,0.0,-999.0,70,-99.99,,,0.00,0,weatherlink.com 1.10,2013-10-09 02:46:00,
2013-10-08 20:01:00,62.6,52.0,29.82,SW,218,0.0,-999.0,69,-99.99,,,0.00,0,weatherlink.com 1.10,2013-10-09 03:01:00,
2013-10-08 20:16:00,62.5,52.0,29.82,SW,223,0.0,-999.0,68,-99.99,,,0.00,0,weatherlink.com 1.10,2013-10-09 03:16:00,
2013-10-08 20:31:00,62.5,52.0,29.83,SW,236,4.0,-999.0,68,-99.99,,,0.00,0,weatherlink.com 1.10,2013-10-09 03:31:00,
2013-10-08 20:46:00,62.5,52.0,29.83,WSW,250,2.0,-999.0,68,-99.99,,,0.00,0,weatherlink.com 1.10,2013-10-09 03:46:00,
2013-10-08 21:01:00,62.4,52.0,29.83,SSW,192,0.0,-999.0,69,-99.99,,,0.00,0,weatherlink.com 1.10,2013-10-09 04:01:00,
2013-10-08 21:16:00,62.3,52.0,29.83,SW,217,0.0,-999.0,69,-99.99,,,0.00,0,weatherlink.com 1.10,2013-10-09 04:16:00,
2013-10-08 21:31:00,62.2,52.0,29.82,SW,219,0.0,-999.0,69,-99.99,,,0.00,0,weatherlink.com 1.10,2013-10-09 04:31:00,
2013-10-08 21:46:00,62.2,52.0,29.83,SW,219,0.0,-999.0,69,-99.99,,,0.00,0,weatherlink.com 1.10,2013-10-09 04:46:00,
2013-10-08 22:01:00,62.1,51.0,29.83,SW,221,0.0,-999.0,67,-99.99,,,0.00,0,weatherlink.com 1.10,2013-10-09 05:01:00,
2013-10-08 22:16:00,62.0,50.0,29.82,SW,221,0.0,-999.0,66,-99.99,,,0.00,0,weatherlink.com 1.10,2013-10-09 05:16:00,
2013-10-08 22:31:00,62.1,50.0,29.82,SW,221,0.0,-999.0,65,-99.99,,,0.00,0,weatherlink.com 1.10,2013-10-09 05:31:00,
2013-10-08 22:46:00,62.1,50.0,29.81,SW,217,0.0,-999.0,65,-99.99,,,0.00,0,weatherlink.com 1.10,2013-10-09 05:46:00,
2013-10-08 23:01:00,62.1,50.0,29.81,SW,217,0.0,-999.0,65,-99.99,,,0.00,0,weatherlink.com 1.10,2013-10-09 06:01:00,
2013-10-08 23:16:00,62.1,51.0,29.81,SW,232,0.0,-999.0,66,-99.99,,,0.00,0,weatherlink.com 1.10,2013-10-09 06:16:00,
2013-10-08 23:31:00,62.0,51.0,29.80,SW,234,0.0,-999.0,68,-99.99,,,0.00,0,weatherlink.com 1.10,2013-10-09 06:31:00,
2013-10-08 23:46:00,61.7,51.0,29.79,SW,229,0.0,-999.0,69,-99.99,,,0.00,0,weatherlink.com 1.10,2013-10-09 06:46:00,